Home   Weather   Giarre   Past weeks
Flag for Italy

Past Weather in Giarre, Italy — Yesterday and Last 2 Weeks

Currently: 43 °F. Clear. (Weather station: Catania / Fontanarossa, Italy). See more current weather

Past Weather in Giarre — Graph

°F

Giarre Temperature Yesterday

Maximum temperature yesterday: 63 °F (at 1:20 pm)
Minimum temperature yesterday: 34 °F (at 6:50 am)
Average temperature yesterday: 48 °F

High & Low Weather Summary for the Past Weeks

 TemperatureHumidityPressure
High64 °F (Jan 15, 2:20 pm)100% (Jan 16, 12:50 am)30.48 "Hg (Jan 16, 12:50 am)
Low27 °F (Jan 26, 5:20 am)37% (Jan 23, 7:50 pm)30.07 "Hg (Jan 21, 1:20 pm)
Average47 °F75%30.29 "Hg
* Reported Jan 14 12:20 am — Jan 29 12:50 am, Giarre. Weather by CustomWeather, © 2022

Note: Actual official high and low records may vary slightly from our data, if they occured in-between our weather recording intervals... More about our weather records

Giarre Weather History for the Previous 24 Hours

Scroll right to see more
 ConditionsComfort  
Time TempWeatherWind HumidityBarometerVisibility
12:50 am
Sat, Jan 29
43 °FClear.6 mph87%30.15 "Hg10 mi
12:20 am43 °FClear.8 mph87%30.18 "Hg10 mi
11:50 pm
Fri, Jan 28
45 °FClear.5 mph87%30.18 "Hg10 mi
11:20 pm45 °FClear.7 mph81%30.18 "Hg10 mi
10:50 pm46 °FClear.8 mph82%30.18 "Hg10 mi
10:20 pm45 °FClear.9 mph87%30.21 "Hg10 mi
9:50 pm45 °FClear.6 mph87%30.21 "Hg10 mi
9:20 pm45 °FClear.6 mph87%30.18 "Hg10 mi
8:50 pm48 °FPassing clouds.5 mph76%30.21 "HgN/A
8:20 pm48 °FPassing clouds.5 mph82%30.21 "HgN/A
7:20 pm52 °FClear.6 mph77%30.18 "Hg10 mi
6:50 pm52 °FPassing clouds.5 mph77%30.18 "HgN/A
6:20 pm54 °FPassing clouds.3 mph72%30.21 "HgN/A
5:50 pm55 °FPassing clouds.5 mph67%30.21 "HgN/A
5:20 pm57 °FPassing clouds.5 mph63%30.21 "HgN/A
4:50 pm57 °FPartly sunny.7 mph59%30.21 "HgN/A
4:20 pm57 °FScattered clouds.10 mph59%30.21 "HgN/A
3:20 pm59 °FSunny.12 mph55%30.18 "Hg10 mi
2:50 pm63 °FSunny.8 mph49%30.18 "Hg10 mi
2:20 pm63 °FPassing clouds.3 mph42%30.21 "HgN/A
1:50 pm63 °FPassing clouds.6 mph42%30.21 "HgN/A
1:20 pm63 °FPassing clouds.7 mph42%30.21 "HgN/A
12:50 pm61 °FPassing clouds.8 mph48%30.24 "HgN/A
11:50 am59 °FPassing clouds.9 mph51%30.27 "HgN/A
11:20 am57 °FPassing clouds.9 mph59%30.30 "HgN/A
10:50 am55 °FSunny.9 mph63%30.30 "Hg10 mi
10:20 am54 °FSunny.9 mph67%30.30 "Hg10 mi
9:50 am52 °FSunny.8 mph72%30.30 "Hg10 mi
9:20 am50 °FSunny.9 mph76%30.30 "Hg10 mi
8:20 am39 °FSunny.6 mph87%30.30 "Hg10 mi
7:50 am37 °FSunny.8 mph93%30.30 "Hg10 mi
7:20 am37 °FSunny.7 mph87%30.30 "Hg10 mi
6:50 am34 °FClear.7 mph93%30.30 "Hg10 mi
6:20 am36 °FClear.6 mph93%30.30 "Hg10 mi
5:50 am36 °FClear.8 mph93%30.30 "Hg10 mi
5:20 am36 °FClear.8 mph93%30.30 "Hg10 mi
4:50 am36 °FClear.7 mph93%30.30 "Hg10 mi
4:20 am37 °FClear.7 mph93%30.30 "Hg10 mi
3:50 am37 °FClear.10 mph93%30.33 "Hg10 mi
3:20 am37 °FClear.10 mph93%30.33 "Hg10 mi
2:50 am37 °FClear.10 mph93%30.33 "Hg10 mi
2:20 am37 °FClear.7 mph87%30.33 "Hg10 mi
Weather by CustomWeather, © 2022

See weather overview